Ns Champion — A8FD9 — position and weather

sailwx.info

Track history (hours):
 
Tides and Currents Weather Stations Pressure Air Temp Water Temp Dewpoint Dewpoint Depression Visibility Wind Speed Wind Dir Waves Ship Positions

Ns Champion

Last reported at 2018-Jan-27 13:26 UTC. Time now 2018-Feb-24 15:46 UTC.
Position N 38°40' W 074°37'.
Warning: this ship's position is 28 days out of date.

Length 244 m; draft 8 m.

Type: Ship. MMSI: 636012384.

Date/timePositionNaut miles runAvg speedWind from/ knotsBaromVisibWave heightAir tempDewpointWater temp
2018-Jan-27 13:26N 38°40' W 074°37'0 0.0
2018-Jan-27 10:26N 38°40' W 074°37'0 0.0
2018-Jan-27 09:44N 38°40' W 074°37'0 0.0
2018-Jan-27 09:20N 38°40' W 074°37'  
2018-Jan-24 16:12N 38°58' W 075°07'312.9
2018-Jan-24 15:59N 39°01' W 075°09'613.6
2018-Jan-24 15:30N 39°06' W 075°12'714.3
2018-Jan-24 15:01N 39°13' W 075°17'815.8
2018-Jan-24 14:31N 39°19' W 075°24'816.6
2018-Jan-24 14:00N 39°25' W 075°31'714.2
2018-Jan-24 13:30N 39°32' W 075°33'612.1
2018-Jan-24 13:00N 39°38' W 075°35'713.0
2018-Jan-24 12:30N 39°43' W 075°30'611.3
2018-Jan-24 12:01N 39°48' W 075°26'1 3.0
2018-Jan-24 11:30N 39°49' W 075°24'0 0.1
2018-Jan-24 11:01N 39°49' W 075°24'0 0.0
2018-Jan-24 10:28N 39°49' W 075°24'0 0.0
2018-Jan-24 09:58N 39°49' W 075°24'0 0.0
2018-Jan-24 09:25N 39°49' W 075°24'0 0.0
2018-Jan-24 09:00N 39°49' W 075°24'0 0.0
2018-Jan-24 08:28N 39°49' W 075°24'0 0.0
2018-Jan-24 07:58N 39°49' W 075°24'0 0.0
2018-Jan-24 07:30N 39°49' W 075°24'0 0.0
2018-Jan-24 06:58N 39°49' W 075°24'0 0.0
2018-Jan-24 06:31N 39°49' W 075°24'0 0.0
2018-Jan-24 06:00N 39°49' W 075°24'0 0.0
2018-Jan-24 05:30N 39°49' W 075°24'0 0.0
2018-Jan-24 05:00N 39°49' W 075°24'0 0.0
2018-Jan-24 04:30N 39°49' W 075°24'0 0.0
2018-Jan-24 04:00N 39°49' W 075°24'0 0.0
2018-Jan-24 03:30N 39°49' W 075°24'0 0.0
2018-Jan-24 03:01N 39°49' W 075°24'0 0.0
2018-Jan-24 02:31N 39°49' W 075°24'0 0.0
2018-Jan-24 02:00N 39°49' W 075°24'0 0.0
2018-Jan-24 01:30N 39°49' W 075°24'0 0.0
2018-Jan-24 01:00N 39°49' W 075°24'0 0.0
2018-Jan-24 00:30N 39°49' W 075°24'0 0.0
2018-Jan-24 00:00N 39°49' W 075°24'0 0.0
2018-Jan-23 23:30N 39°49' W 075°24'0 0.0
2018-Jan-23 23:00N 39°49' W 075°24'0 0.0
2018-Jan-23 22:30N 39°49' W 075°24'0 0.0
2018-Jan-23 21:57N 39°49' W 075°24'0 0.0
2018-Jan-23 21:30N 39°49' W 075°24'0 0.0
2018-Jan-23 21:00N 39°49' W 075°24'0 0.0
2018-Jan-23 20:30N 39°49' W 075°24'0 0.0
2018-Jan-23 20:00N 39°49' W 075°24'0 0.0
2018-Jan-23 19:30N 39°49' W 075°24'0 0.0
2018-Jan-23 19:00N 39°49' W 075°24'0 0.0
2018-Jan-23 18:30N 39°49' W 075°24'0 0.0
2018-Jan-23 18:00N 39°49' W 075°24'0 0.0
2018-Jan-23 17:30N 39°49' W 075°24'0 0.0
2018-Jan-23 17:00N 39°49' W 075°24'0 0.0
2018-Jan-23 16:30N 39°49' W 075°24'0 0.0
2018-Jan-23 16:00N 39°49' W 075°24'0 0.0
2018-Jan-23 15:30N 39°49' W 075°24'0 0.0
2018-Jan-23 15:00N 39°49' W 075°24'0 0.0
2018-Jan-23 14:30N 39°49' W 075°24'0 0.0
2018-Jan-23 14:00N 39°49' W 075°24'0 0.0
2018-Jan-23 13:30N 39°49' W 075°24'0 0.0
2018-Jan-23 13:00N 39°49' W 075°24'0 0.0
2018-Jan-23 12:30N 39°49' W 075°24'0 0.0
2018-Jan-23 12:00N 39°49' W 075°24'0 0.0
2018-Jan-23 11:21N 39°49' W 075°24'0 0.0
2018-Jan-23 11:00N 39°49' W 075°24'0 0.0
2018-Jan-23 10:30N 39°49' W 075°24'0 0.0
2018-Jan-23 10:00N 39°49' W 075°24'0 0.0
2018-Jan-23 09:27N 39°49' W 075°24'0 0.0
2018-Jan-23 08:45N 39°49' W 075°24'0 0.0
2018-Jan-23 08:29N 39°49' W 075°24'0 0.3
2018-Jan-23 08:00N 39°49' W 075°24'3 5.0
2018-Jan-23 07:30N 39°47' W 075°27'4 7.3
2018-Jan-23 07:00N 39°44' W 075°30'5 9.1
2018-Jan-23 06:30N 39°40' W 075°32'5 9.4
2018-Jan-23 06:00N 39°36' W 075°34'612.0
2018-Jan-23 05:30N 39°30' W 075°34'713.1
2018-Jan-23 04:58N 39°23' W 075°29'  
2018-Jan-18 20:07N 38°58' W 075°08'215.1
2018-Jan-18 20:00N 38°60' W 075°08'815.3
2018-Jan-18 19:30N 39°07' W 075°13'815.2
2018-Jan-18 19:00N 39°13' W 075°18'714.8
2018-Jan-18 18:30N 39°19' W 075°24'713.9
2018-Jan-18 18:00N 39°24' W 075°30'611.9
2018-Jan-18 17:30N 39°29' W 075°34'611.4
2018-Jan-18 17:00N 39°35' W 075°33'5 9.7
2018-Jan-18 16:30N 39°40' W 075°32'4 8.4
2018-Jan-18 16:00N 39°44' W 075°30'5 9.3
2018-Jan-18 15:30N 39°47' W 075°27'3 5.1
2018-Jan-18 15:00N 39°49' W 075°24'0 0.0
2018-Jan-18 14:30N 39°49' W 075°24'0 0.3
2018-Jan-18 14:00N 39°48' W 075°24'0 0.3
2018-Jan-18 13:29N 39°48' W 075°24'0 0.0
2018-Jan-18 13:00N 39°48' W 075°24'0 0.0
2018-Jan-18 12:30N 39°48' W 075°24'0 0.0
2018-Jan-18 12:00N 39°48' W 075°24'0 0.0
2018-Jan-18 11:29N 39°48' W 075°24'0 0.0
2018-Jan-18 10:59N 39°48' W 075°24'0 0.0
2018-Jan-18 10:29N 39°48' W 075°24'0 0.0
2018-Jan-18 09:56N 39°48' W 075°24'0 0.0
2018-Jan-18 09:29N 39°48' W 075°24'0 0.0
2018-Jan-18 08:59N 39°48' W 075°24'0 0.0
2018-Jan-18 08:29N 39°48' W 075°24'0 0.1
2018-Jan-18 07:59N 39°48' W 075°24'0 0.2
2018-Jan-18 07:29N 39°48' W 075°24'0 0.1
2018-Jan-18 06:59N 39°49' W 075°24'0 0.3
2018-Jan-18 06:30N 39°49' W 075°24'2 3.3
2018-Jan-18 06:01N 39°48' W 075°26'3 6.7
2018-Jan-18 05:30N 39°46' W 075°29'510.0
2018-Jan-18 05:00N 39°41' W 075°31'611.4
2018-Jan-18 04:30N 39°35' W 075°34'1 2.5
2018-Jan-18 04:00N 39°34' W 075°34'1 2.7
2018-Jan-18 03:30N 39°35' W 075°35'0 0.0
2018-Jan-18 02:58N 39°35' W 075°35'0 0.0
2018-Jan-18 02:30N 39°35' W 075°35'0 0.0
2018-Jan-18 01:58N 39°35' W 075°35'0 0.0
2018-Jan-18 01:31N 39°35' W 075°35'0 0.0
2018-Jan-18 01:01N 39°35' W 075°35'0 0.0
2018-Jan-18 00:00N 39°35' W 075°35'0 0.2
2018-Jan-17 23:57N 39°35' W 075°35'  
Track history (hours):
 
Tides and Currents Weather Stations Pressure Air Temp Water Temp Dewpoint Dewpoint Depression Visibility Wind Speed Wind Dir Waves Ship Positions

Ns Champion

Last reported at 2018-Jan-27 13:26 UTC. Time now 2018-Feb-24 15:46 UTC.
Position N 38°40' W 074°37'.
Warning: this ship's position is 28 days out of date.

Length 244 m; draft 8 m.

Type: Ship. MMSI: 636012384.

Date/timePositionNaut miles runAvg speedWind from/ knotsBaromVisibWave heightAir tempDewpointWater temp
2018-Jan-27 13:26N 38°40' W 074°37'0 0.0
2018-Jan-27 10:26N 38°40' W 074°37'0 0.0
2018-Jan-27 09:44N 38°40' W 074°37'0 0.0
2018-Jan-27 09:20N 38°40' W 074°37'  
2018-Jan-24 16:12N 38°58' W 075°07'312.9
2018-Jan-24 15:59N 39°01' W 075°09'613.6
2018-Jan-24 15:30N 39°06' W 075°12'714.3
2018-Jan-24 15:01N 39°13' W 075°17'815.8
2018-Jan-24 14:31N 39°19' W 075°24'816.6
2018-Jan-24 14:00N 39°25' W 075°31'714.2
2018-Jan-24 13:30N 39°32' W 075°33'612.1
2018-Jan-24 13:00N 39°38' W 075°35'713.0
2018-Jan-24 12:30N 39°43' W 075°30'611.3
2018-Jan-24 12:01N 39°48' W 075°26'1 3.0
2018-Jan-24 11:30N 39°49' W 075°24'0 0.1
2018-Jan-24 11:01N 39°49' W 075°24'0 0.0
2018-Jan-24 10:28N 39°49' W 075°24'0 0.0
2018-Jan-24 09:58N 39°49' W 075°24'0 0.0
2018-Jan-24 09:25N 39°49' W 075°24'0 0.0
2018-Jan-24 09:00N 39°49' W 075°24'0 0.0
2018-Jan-24 08:28N 39°49' W 075°24'0 0.0
2018-Jan-24 07:58N 39°49' W 075°24'0 0.0
2018-Jan-24 07:30N 39°49' W 075°24'0 0.0
2018-Jan-24 06:58N 39°49' W 075°24'0 0.0
2018-Jan-24 06:31N 39°49' W 075°24'0 0.0
2018-Jan-24 06:00N 39°49' W 075°24'0 0.0
2018-Jan-24 05:30N 39°49' W 075°24'0 0.0
2018-Jan-24 05:00N 39°49' W 075°24'0 0.0
2018-Jan-24 04:30N 39°49' W 075°24'0 0.0
2018-Jan-24 04:00N 39°49' W 075°24'0 0.0
2018-Jan-24 03:30N 39°49' W 075°24'0 0.0
2018-Jan-24 03:01N 39°49' W 075°24'0 0.0
2018-Jan-24 02:31N 39°49' W 075°24'0 0.0
2018-Jan-24 02:00N 39°49' W 075°24'0 0.0
2018-Jan-24 01:30N 39°49' W 075°24'0 0.0
2018-Jan-24 01:00N 39°49' W 075°24'0 0.0
2018-Jan-24 00:30N 39°49' W 075°24'0 0.0
2018-Jan-24 00:00N 39°49' W 075°24'0 0.0
2018-Jan-23 23:30N 39°49' W 075°24'0 0.0
2018-Jan-23 23:00N 39°49' W 075°24'0 0.0
2018-Jan-23 22:30N 39°49' W 075°24'0 0.0
2018-Jan-23 21:57N 39°49' W 075°24'0 0.0
2018-Jan-23 21:30N 39°49' W 075°24'0 0.0
2018-Jan-23 21:00N 39°49' W 075°24'0 0.0
2018-Jan-23 20:30N 39°49' W 075°24'0 0.0
2018-Jan-23 20:00N 39°49' W 075°24'0 0.0
2018-Jan-23 19:30N 39°49' W 075°24'0 0.0
2018-Jan-23 19:00N 39°49' W 075°24'0 0.0
2018-Jan-23 18:30N 39°49' W 075°24'0 0.0
2018-Jan-23 18:00N 39°49' W 075°24'0 0.0
2018-Jan-23 17:30N 39°49' W 075°24'0 0.0
2018-Jan-23 17:00N 39°49' W 075°24'0 0.0
2018-Jan-23 16:30N 39°49' W 075°24'0 0.0
2018-Jan-23 16:00N 39°49' W 075°24'0 0.0
2018-Jan-23 15:30N 39°49' W 075°24'0 0.0
2018-Jan-23 15:00N 39°49' W 075°24'0 0.0
2018-Jan-23 14:30N 39°49' W 075°24'0 0.0
2018-Jan-23 14:00N 39°49' W 075°24'0 0.0
2018-Jan-23 13:30N 39°49' W 075°24'0 0.0
2018-Jan-23 13:00N 39°49' W 075°24'0 0.0
2018-Jan-23 12:30N 39°49' W 075°24'0 0.0
2018-Jan-23 12:00N 39°49' W 075°24'0 0.0
2018-Jan-23 11:21N 39°49' W 075°24'0 0.0
2018-Jan-23 11:00N 39°49' W 075°24'0 0.0
2018-Jan-23 10:30N 39°49' W 075°24'0 0.0
2018-Jan-23 10:00N 39°49' W 075°24'0 0.0
2018-Jan-23 09:27N 39°49' W 075°24'0 0.0
2018-Jan-23 08:45N 39°49' W 075°24'0 0.0
2018-Jan-23 08:29N 39°49' W 075°24'0 0.3
2018-Jan-23 08:00N 39°49' W 075°24'3 5.0
2018-Jan-23 07:30N 39°47' W 075°27'4 7.3
2018-Jan-23 07:00N 39°44' W 075°30'5 9.1
2018-Jan-23 06:30N 39°40' W 075°32'5 9.4
2018-Jan-23 06:00N 39°36' W 075°34'612.0
2018-Jan-23 05:30N 39°30' W 075°34'713.1
2018-Jan-23 04:58N 39°23' W 075°29'  
2018-Jan-18 20:07N 38°58' W 075°08'215.1
2018-Jan-18 20:00N 38°60' W 075°08'815.3
2018-Jan-18 19:30N 39°07' W 075°13'815.2
2018-Jan-18 19:00N 39°13' W 075°18'714.8
2018-Jan-18 18:30N 39°19' W 075°24'713.9
2018-Jan-18 18:00N 39°24' W 075°30'611.9
2018-Jan-18 17:30N 39°29' W 075°34'611.4
2018-Jan-18 17:00N 39°35' W 075°33'5 9.7
2018-Jan-18 16:30N 39°40' W 075°32'4 8.4
2018-Jan-18 16:00N 39°44' W 075°30'5 9.3
2018-Jan-18 15:30N 39°47' W 075°27'3 5.1
2018-Jan-18 15:00N 39°49' W 075°24'0 0.0
2018-Jan-18 14:30N 39°49' W 075°24'0 0.3
2018-Jan-18 14:00N 39°48' W 075°24'0 0.3
2018-Jan-18 13:29N 39°48' W 075°24'0 0.0
2018-Jan-18 13:00N 39°48' W 075°24'0 0.0
2018-Jan-18 12:30N 39°48' W 075°24'0 0.0
2018-Jan-18 12:00N 39°48' W 075°24'0 0.0
2018-Jan-18 11:29N 39°48' W 075°24'0 0.0
2018-Jan-18 10:59N 39°48' W 075°24'0 0.0
2018-Jan-18 10:29N 39°48' W 075°24'0 0.0
2018-Jan-18 09:56N 39°48' W 075°24'0 0.0
2018-Jan-18 09:29N 39°48' W 075°24'0 0.0
2018-Jan-18 08:59N 39°48' W 075°24'0 0.0
2018-Jan-18 08:29N 39°48' W 075°24'0 0.1
2018-Jan-18 07:59N 39°48' W 075°24'0 0.2
2018-Jan-18 07:29N 39°48' W 075°24'0 0.1
2018-Jan-18 06:59N 39°49' W 075°24'0 0.3
2018-Jan-18 06:30N 39°49' W 075°24'2 3.3
2018-Jan-18 06:01N 39°48' W 075°26'3 6.7
2018-Jan-18 05:30N 39°46' W 075°29'510.0
2018-Jan-18 05:00N 39°41' W 075°31'611.4
2018-Jan-18 04:30N 39°35' W 075°34'1 2.5
2018-Jan-18 04:00N 39°34' W 075°34'1 2.7
2018-Jan-18 03:30N 39°35' W 075°35'0 0.0
2018-Jan-18 02:58N 39°35' W 075°35'0 0.0
2018-Jan-18 02:30N 39°35' W 075°35'0 0.0
2018-Jan-18 01:58N 39°35' W 075°35'0 0.0
2018-Jan-18 01:31N 39°35' W 075°35'0 0.0
2018-Jan-18 01:01N 39°35' W 075°35'0 0.0
2018-Jan-18 00:00N 39°35' W 075°35'0 0.2
2018-Jan-17 23:57N 39°35' W 075°35'  

Dump ship's entire track history